createdAt,value
2019-01-23T00:01:27.659Z,17.77
2019-01-23T00:03:56.320Z,15.80
2019-01-23T00:06:24.973Z,16.37
2019-01-23T00:08:53.629Z,17.43
2019-01-23T00:11:22.307Z,17.77
2019-01-23T00:13:50.987Z,19.53
2019-01-23T00:16:19.687Z,16.60
2019-01-23T00:18:48.342Z,14.67
2019-01-23T00:21:17.387Z,15.00
2019-01-23T00:23:46.057Z,18.27
2019-01-23T00:26:15.090Z,16.43
2019-01-23T00:28:44.161Z,21.20
2019-01-23T00:31:12.879Z,13.33
2019-01-23T00:33:41.602Z,13.93
2019-01-23T00:36:10.233Z,16.33
2019-01-23T00:38:38.865Z,14.73
2019-01-23T00:41:07.531Z,15.30
2019-01-23T00:43:36.487Z,15.73
2019-01-23T00:46:05.135Z,16.90
2019-01-23T00:48:34.148Z,16.40
2019-01-23T00:51:03.172Z,13.83
2019-01-23T00:53:31.824Z,15.07
2019-01-23T00:56:00.520Z,16.73
2019-01-23T00:58:29.459Z,14.17
2019-01-23T01:00:58.192Z,15.47
2019-01-23T01:03:27.018Z,17.57
2019-01-23T01:05:55.714Z,14.43
2019-01-23T01:08:24.706Z,10.37
2019-01-23T01:10:53.344Z,14.00
2019-01-23T01:13:22.475Z,16.20
2019-01-23T01:15:51.189Z,16.17
2019-01-23T01:18:19.884Z,14.10
2019-01-23T01:20:48.771Z,14.53
2019-01-23T01:23:17.691Z,18.13
2019-01-23T01:25:46.325Z,13.17
2019-01-23T01:28:14.982Z,14.90
2019-01-23T01:30:43.699Z,15.60
2019-01-23T01:33:12.667Z,16.23
2019-01-23T01:35:41.315Z,9.83
2019-01-23T01:38:09.970Z,12.20
2019-01-23T01:40:39.462Z,10.10
2019-01-23T01:43:08.211Z,14.00
2019-01-23T01:45:36.864Z,15.73
2019-01-23T01:48:05.918Z,14.93
2019-01-23T01:50:34.915Z,15.63
2019-01-23T01:53:03.985Z,16.60
2019-01-23T01:55:32.906Z,14.80
2019-01-23T01:58:02.676Z,14.17
2019-01-23T02:00:31.455Z,16.10
2019-01-23T02:03:00.180Z,12.97
2019-01-23T02:05:28.939Z,14.73
2019-01-23T02:07:57.558Z,12.43
2019-01-23T02:10:26.218Z,15.33
2019-01-23T02:12:54.960Z,12.47
2019-01-23T02:15:23.691Z,13.07
2019-01-23T02:17:52.723Z,15.83
2019-01-23T02:20:26.359Z,16.77
2019-01-23T02:22:55.087Z,16.63
2019-01-23T02:25:23.852Z,16.47
2019-01-23T02:27:52.987Z,16.87
2019-01-23T02:30:23.589Z,18.93
2019-01-23T02:32:52.615Z,17.70
2019-01-23T02:35:21.654Z,15.70
2019-01-23T02:37:50.377Z,14.57
2019-01-23T02:40:21.237Z,19.50
2019-01-23T02:42:50.346Z,15.10
2019-01-23T02:45:19.683Z,17.57
2019-01-23T02:47:48.457Z,19.67
2019-01-23T02:50:17.239Z,15.87
2019-01-23T02:52:46.132Z,15.97
2019-01-23T02:55:14.882Z,9.37
2019-01-23T02:57:43.962Z,15.83
2019-01-23T03:00:17.160Z,15.77
2019-01-23T03:02:46.600Z,12.37
2019-01-23T03:05:17.561Z,17.97
2019-01-23T03:07:46.275Z,18.77
2019-01-23T03:10:17.188Z,17.03
2019-01-23T03:12:45.968Z,15.17
2019-01-23T03:15:15.495Z,18.50
2019-01-23T03:17:45.798Z,14.73
2019-01-23T03:20:16.279Z,18.03
2019-01-23T03:22:45.040Z,17.33
2019-01-23T03:25:14.156Z,15.33
2019-01-23T03:27:42.864Z,15.20
2019-01-23T03:30:15.212Z,12.83
2019-01-23T03:32:44.367Z,14.30
2019-01-23T03:35:13.424Z,19.17
2019-01-23T03:37:42.063Z,10.17
2019-01-23T03:40:13.572Z,16.20
2019-01-23T03:42:42.600Z,13.37
2019-01-23T03:45:12.599Z,16.80
2019-01-23T03:47:41.402Z,14.00
2019-01-23T03:50:13.327Z,12.10
2019-01-23T03:52:42.328Z,14.63
2019-01-23T03:55:11.383Z,10.73
2019-01-23T03:57:40.184Z,15.07
2019-01-23T04:00:11.977Z,15.80
2019-01-23T04:02:40.849Z,15.10
2019-01-23T04:05:10.249Z,11.03
2019-01-23T04:07:38.964Z,13.90
2019-01-23T04:10:09.960Z,15.50
2019-01-23T04:12:38.585Z,12.40
2019-01-23T04:15:08.763Z,12.27
2019-01-23T04:17:37.543Z,12.77
2019-01-23T04:20:10.159Z,17.00
2019-01-23T04:22:39.375Z,14.63
2019-01-23T04:25:08.368Z,17.23
2019-01-23T04:27:37.349Z,15.97
2019-01-23T04:30:08.213Z,16.17
2019-01-23T04:32:36.886Z,14.00
2019-01-23T04:35:06.156Z,13.73
2019-01-23T04:37:35.114Z,13.80
2019-01-23T04:40:04.562Z,17.63
2019-01-23T04:42:33.531Z,15.07
2019-01-23T04:45:02.327Z,15.43
2019-01-23T04:47:31.198Z,18.10
2019-01-23T04:49:59.891Z,14.60
2019-01-23T04:52:46.411Z,15.40
2019-01-23T04:55:15.067Z,14.50
2019-01-23T04:57:44.029Z,16.27
2019-01-23T05:00:14.513Z,14.90
2019-01-23T05:02:43.278Z,13.90
2019-01-23T05:05:12.542Z,15.80
2019-01-23T05:07:41.194Z,13.20
2019-01-23T05:10:09.980Z,16.87
2019-01-23T05:12:38.624Z,12.40
2019-01-23T05:15:07.443Z,15.83
2019-01-23T05:17:36.071Z,12.07
2019-01-23T05:20:05.665Z,15.63
2019-01-23T05:22:34.301Z,17.03
2019-01-23T05:25:03.015Z,13.57
2019-01-23T05:27:32.732Z,16.97
2019-01-23T05:30:01.375Z,16.83
2019-01-23T05:32:30.028Z,15.77
2019-01-23T05:34:59.191Z,18.30
2019-01-23T05:37:27.829Z,16.27
2019-01-23T05:39:56.493Z,16.17
2019-01-23T05:42:25.140Z,16.07
2019-01-23T05:44:53.853Z,14.00
2019-01-23T05:47:22.581Z,17.27
2019-01-23T05:49:51.256Z,16.77
2019-01-23T05:52:19.963Z,16.97
2019-01-23T05:54:48.634Z,16.63
2019-01-23T05:57:17.332Z,14.47
2019-01-23T05:59:46.012Z,16.60
2019-01-23T06:02:14.690Z,15.77
2019-01-23T06:04:43.675Z,17.20
2019-01-23T06:07:12.325Z,17.53
2019-01-23T06:09:40.965Z,17.70
2019-01-23T06:12:09.607Z,17.63
2019-01-23T06:14:38.254Z,18.70
2019-01-23T06:17:06.974Z,19.07
2019-01-23T06:19:35.614Z,17.00
2019-01-23T06:22:04.258Z,17.23
2019-01-23T06:24:33.231Z,19.40
2019-01-23T06:27:01.903Z,15.20
2019-01-23T06:29:30.530Z,15.30
2019-01-23T06:31:59.249Z,16.40
2019-01-23T06:34:27.898Z,20.00
2019-01-23T06:36:56.639Z,17.83
2019-01-23T06:39:25.626Z,23.20
2019-01-23T06:41:54.288Z,20.53
2019-01-23T06:44:23.203Z,20.13
2019-01-23T06:46:51.855Z,19.90
2019-01-23T06:49:20.563Z,14.97
2019-01-23T06:51:49.211Z,21.73
2019-01-23T06:54:18.218Z,20.80
2019-01-23T06:56:47.233Z,22.40
2019-01-23T06:59:15.872Z,21.33
2019-01-23T07:01:44.839Z,23.07
2019-01-23T07:04:13.714Z,25.07
2019-01-23T07:06:46.974Z,22.20
2019-01-23T07:09:15.851Z,22.27
2019-01-23T07:11:46.834Z,25.73
2019-01-23T07:14:14.971Z,22.63
2019-01-23T07:16:43.996Z,23.77
2019-01-23T07:19:12.651Z,28.13
2019-01-23T07:21:41.810Z,24.37
2019-01-23T07:24:10.708Z,24.87
2019-01-23T07:26:39.423Z,17.63
2019-01-23T07:29:08.470Z,21.63
2019-01-23T07:31:37.128Z,26.37
2019-01-23T07:34:05.770Z,20.60
2019-01-23T07:36:34.469Z,26.13
2019-01-23T07:39:05.103Z,26.80
2019-01-23T07:41:33.778Z,28.40
2019-01-23T07:44:02.830Z,31.63
2019-01-23T07:46:31.485Z,30.07
2019-01-23T07:49:00.441Z,27.50
2019-01-23T07:51:29.647Z,29.67
2019-01-23T07:53:58.370Z,30.07
2019-01-23T07:56:27.047Z,27.80
2019-01-23T07:58:55.829Z,27.43
2019-01-23T08:01:27.029Z,25.57
2019-01-23T08:03:55.635Z,32.90
2019-01-23T08:06:24.591Z,32.40
2019-01-23T08:08:53.354Z,30.43
2019-01-23T08:11:22.419Z,27.20
2019-01-23T08:13:51.136Z,31.63
2019-01-23T08:16:20.270Z,27.10
2019-01-23T08:18:48.955Z,27.67
2019-01-23T08:21:17.658Z,31.07
2019-01-23T08:23:46.300Z,27.93
2019-01-23T08:26:14.982Z,31.07
2019-01-23T08:28:43.623Z,35.50
2019-01-23T08:31:12.270Z,37.53
2019-01-23T08:33:40.936Z,37.53
2019-01-23T08:36:09.873Z,37.07
2019-01-23T08:38:38.510Z,33.73
2019-01-23T08:41:07.534Z,34.93
2019-01-23T08:43:36.179Z,35.27
2019-01-23T08:46:05.631Z,29.90
2019-01-23T08:48:34.287Z,39.03
2019-01-23T08:51:03.027Z,36.27
2019-01-23T08:53:31.664Z,35.63
2019-01-23T08:56:00.578Z,40.07
2019-01-23T08:58:29.472Z,39.57
2019-01-23T09:00:58.483Z,43.20
2019-01-23T09:03:27.410Z,39.43
2019-01-23T09:05:56.086Z,40.90
2019-01-23T09:08:24.747Z,43.83
2019-01-23T09:10:53.395Z,43.23
2019-01-23T09:13:22.566Z,45.60
2019-01-23T09:15:51.260Z,44.27
2019-01-23T09:18:19.913Z,44.20
2019-01-23T09:20:48.577Z,41.10
2019-01-23T09:23:17.237Z,36.73
2019-01-23T09:25:50.171Z,36.60
2019-01-23T09:28:16.398Z,41.80
2019-01-23T09:30:53.008Z,36.33
2019-01-23T09:33:58.694Z,28.83
2019-01-23T09:37:02.297Z,34.93
2019-01-23T09:40:11.514Z,26.23
2019-01-23T09:43:21.767Z,38.93
2019-01-23T09:46:04.181Z,39.37
2019-01-23T09:49:13.592Z,35.30
2019-01-23T09:52:06.587Z,37.40
2019-01-23T09:54:35.474Z,39.03
2019-01-23T09:57:04.253Z,40.40
2019-01-23T09:59:33.585Z,35.57
2019-01-23T10:02:02.282Z,36.73
2019-01-23T10:04:31.197Z,43.00
2019-01-23T10:07:00.191Z,29.67
2019-01-23T10:09:29.159Z,39.63
2019-01-23T10:11:58.145Z,36.90
2019-01-23T10:14:27.149Z,35.07
2019-01-23T10:16:55.815Z,31.63
2019-01-23T10:19:24.500Z,26.63
2019-01-23T10:21:53.404Z,38.40
2019-01-23T10:24:22.104Z,37.63
2019-01-23T10:26:50.738Z,28.07
2019-01-23T10:29:19.489Z,36.47
2019-01-23T10:31:48.214Z,34.37
2019-01-23T10:34:16.871Z,29.53
2019-01-23T10:36:45.830Z,30.00
2019-01-23T10:39:14.495Z,29.53
2019-01-23T10:41:43.397Z,32.73
2019-01-23T10:44:12.907Z,31.90
2019-01-23T10:46:42.009Z,24.60
2019-01-23T10:49:10.661Z,31.10
2019-01-23T10:51:39.313Z,36.03
2019-01-23T10:54:09.886Z,23.47
2019-01-23T10:56:38.777Z,33.20
2019-01-23T10:59:07.426Z,36.67
2019-01-23T11:01:36.299Z,34.00
2019-01-23T11:04:06.393Z,35.73
2019-01-23T11:06:35.593Z,32.33
2019-01-23T11:09:07.413Z,28.43
2019-01-23T11:11:36.481Z,33.20
2019-01-23T11:14:05.746Z,37.97
2019-01-23T11:16:34.612Z,35.10
2019-01-23T11:19:03.267Z,35.23
2019-01-23T11:21:32.228Z,37.00
2019-01-23T11:24:00.999Z,34.70
2019-01-23T11:26:30.112Z,32.83
2019-01-23T11:28:58.875Z,23.93
2019-01-23T11:31:27.579Z,26.13
2019-01-23T11:33:56.241Z,31.87
2019-01-23T11:36:25.267Z,28.33
2019-01-23T11:38:53.922Z,30.17
2019-01-23T11:41:22.659Z,35.13
2019-01-23T11:43:51.331Z,28.47
2019-01-23T11:46:20.041Z,30.83
2019-01-23T11:48:48.691Z,34.03
2019-01-23T11:51:17.620Z,26.87
2019-01-23T11:53:46.291Z,32.83
2019-01-23T11:56:15.013Z,30.27
2019-01-23T11:58:43.874Z,30.40
2019-01-23T12:01:13.440Z,24.60
2019-01-23T12:03:42.166Z,36.03
2019-01-23T12:06:11.142Z,30.37
2019-01-23T12:08:39.771Z,30.23
2019-01-23T12:11:08.438Z,31.53
2019-01-23T12:13:37.170Z,31.00
2019-01-23T12:16:07.324Z,32.60
2019-01-23T12:18:36.319Z,26.63
2019-01-23T12:21:05.192Z,33.73
2019-01-23T12:23:33.880Z,26.77
2019-01-23T12:26:02.578Z,26.87
2019-01-23T12:28:31.250Z,30.60
2019-01-23T12:31:00.220Z,34.43
2019-01-23T12:33:29.360Z,30.23
2019-01-23T12:35:58.087Z,32.07
2019-01-23T12:38:27.134Z,32.83
2019-01-23T12:40:55.808Z,34.83
2019-01-23T12:43:24.804Z,25.37
2019-01-23T12:45:53.467Z,22.63
2019-01-23T12:48:22.127Z,29.20
2019-01-23T12:50:51.000Z,32.23
2019-01-23T12:53:19.815Z,31.53
2019-01-23T12:55:48.485Z,28.90
2019-01-23T12:58:17.143Z,31.87
2019-01-23T13:00:46.203Z,24.23
2019-01-23T13:03:15.133Z,20.20
2019-01-23T13:05:43.879Z,25.03
2019-01-23T13:08:12.675Z,26.27
2019-01-23T13:10:41.424Z,22.97
2019-01-23T13:13:10.487Z,21.53
2019-01-23T13:15:39.164Z,21.27
2019-01-23T13:18:07.859Z,23.80
2019-01-23T13:20:36.860Z,21.17
2019-01-23T13:23:05.528Z,20.03
2019-01-23T13:25:34.292Z,21.10
2019-01-23T13:28:03.356Z,24.40
2019-01-23T13:30:32.104Z,18.23
2019-01-23T13:33:00.853Z,25.67
2019-01-23T13:35:32.553Z,18.30
2019-01-23T13:38:01.833Z,19.87
2019-01-23T13:40:33.150Z,20.90
2019-01-23T13:43:01.950Z,21.13
2019-01-23T13:45:30.628Z,21.90
2019-01-23T13:47:59.407Z,23.17
2019-01-23T13:50:28.058Z,19.73
2019-01-23T13:52:56.764Z,22.10
2019-01-23T13:55:25.514Z,20.63
2019-01-23T13:57:54.671Z,22.07
2019-01-23T14:00:35.679Z,20.47
2019-01-23T14:03:04.891Z,18.93
2019-01-23T14:05:33.935Z,17.40
2019-01-23T14:08:03.008Z,18.50
2019-01-23T14:10:32.210Z,18.67
2019-01-23T14:13:00.910Z,18.33
2019-01-23T14:15:32.031Z,17.80
2019-01-23T14:18:00.784Z,18.23
2019-01-23T14:20:29.480Z,18.47
2019-01-23T14:22:58.133Z,19.40
2019-01-23T14:25:26.987Z,20.70
2019-01-23T14:27:55.802Z,14.97
2019-01-23T14:30:42.076Z,14.70
2019-01-23T14:33:11.087Z,10.80
2019-01-23T14:35:42.540Z,16.60
2019-01-23T14:38:11.232Z,15.80
2019-01-23T14:40:42.427Z,15.70
2019-01-23T14:43:11.453Z,12.50
2019-01-23T14:45:40.254Z,14.50
2019-01-23T14:48:09.480Z,16.67
2019-01-23T14:50:38.456Z,15.73
2019-01-23T14:53:07.190Z,14.70
2019-01-23T14:55:36.538Z,13.57
2019-01-23T14:58:05.620Z,15.23
2019-01-23T15:00:34.383Z,13.90
2019-01-23T15:03:03.132Z,14.03
2019-01-23T15:05:31.951Z,11.80
2019-01-23T15:08:00.920Z,13.37
2019-01-23T15:10:30.658Z,13.20
2019-01-23T15:12:59.839Z,12.90
2019-01-23T15:15:28.655Z,12.27
2019-01-23T15:17:57.374Z,12.37
2019-01-23T15:20:37.679Z,7.93
2019-01-23T15:23:06.933Z,8.63
2019-01-23T15:25:35.680Z,14.30
2019-01-23T15:28:04.998Z,12.97
2019-01-23T15:30:33.751Z,10.43
2019-01-23T15:33:03.054Z,10.87
2019-01-23T15:35:31.747Z,10.70
2019-01-23T15:38:00.991Z,12.77
2019-01-23T15:40:32.183Z,10.37
2019-01-23T15:43:00.865Z,12.70
2019-01-23T15:45:29.668Z,9.70
2019-01-23T15:47:58.362Z,11.37
2019-01-23T15:50:27.542Z,9.30
2019-01-23T15:52:56.693Z,10.80
2019-01-23T15:55:26.035Z,11.20
2019-01-23T15:57:54.950Z,11.03
2019-01-23T16:00:26.000Z,8.80
2019-01-23T16:02:55.269Z,9.03
2019-01-23T16:05:23.952Z,10.13
2019-01-23T16:07:52.721Z,10.60
2019-01-23T16:10:23.131Z,9.73
2019-01-23T16:12:51.860Z,10.10
2019-01-23T16:15:21.905Z,10.17
2019-01-23T16:17:50.592Z,10.47
2019-01-23T16:20:19.344Z,12.00
2019-01-23T16:22:48.259Z,10.47
2019-01-23T16:25:17.057Z,11.77
2019-01-23T16:27:46.091Z,11.03
2019-01-23T16:30:25.084Z,12.37
2019-01-23T16:32:54.013Z,11.23
2019-01-23T16:35:22.753Z,12.57
2019-01-23T16:37:51.833Z,12.13
2019-01-23T16:40:20.511Z,8.50
2019-01-23T16:42:49.615Z,11.03
2019-01-23T16:45:19.298Z,8.27
2019-01-23T16:47:48.470Z,11.90
2019-01-23T16:50:19.417Z,8.40
2019-01-23T16:52:48.196Z,9.40
2019-01-23T16:55:17.025Z,8.60
2019-01-23T16:57:45.936Z,8.93
2019-01-23T17:00:17.266Z,6.03
2019-01-23T17:02:47.887Z,10.10
2019-01-23T17:05:20.802Z,6.13
2019-01-23T17:07:49.512Z,8.80
2019-01-23T17:10:20.248Z,7.00
2019-01-23T17:12:49.264Z,7.70
2019-01-23T17:15:18.150Z,9.50
2019-01-23T17:17:46.880Z,8.93
2019-01-23T17:20:19.663Z,10.60
2019-01-23T17:22:48.392Z,9.67
2019-01-23T17:25:17.706Z,10.13
2019-01-23T17:27:46.408Z,10.87
2019-01-23T17:30:16.380Z,9.67
2019-01-23T17:32:45.789Z,10.00
2019-01-23T17:35:15.723Z,9.70
2019-01-23T17:37:44.491Z,10.17
2019-01-23T17:40:15.414Z,9.27
2019-01-23T17:42:44.532Z,9.13
2019-01-23T17:45:17.547Z,10.20
2019-01-23T17:47:46.762Z,11.70
2019-01-23T17:50:17.666Z,12.17
2019-01-23T17:52:46.423Z,10.20
2019-01-23T17:55:24.280Z,10.47
2019-01-23T17:57:53.059Z,9.47
2019-01-23T18:00:25.410Z,8.60
2019-01-23T18:02:54.858Z,9.63
2019-01-23T18:05:23.994Z,10.33
2019-01-23T18:07:52.800Z,7.93
2019-01-23T18:10:21.661Z,8.33
2019-01-23T18:12:50.448Z,10.20
2019-01-23T18:15:21.193Z,10.00
2019-01-23T18:17:50.087Z,7.33
2019-01-23T18:20:21.329Z,9.77
2019-01-23T18:22:50.382Z,10.07
2019-01-23T18:25:19.589Z,11.30
2019-01-23T18:27:48.445Z,9.73
2019-01-23T18:30:29.865Z,10.93
2019-01-23T18:33:00.084Z,9.67
2019-01-23T18:35:48.124Z,10.67
2019-01-23T18:38:32.743Z,10.37
2019-01-23T18:41:40.893Z,8.53
2019-01-23T18:44:59.893Z,10.07
2019-01-23T18:48:07.984Z,10.53
2019-01-23T18:51:11.606Z,7.83
2019-01-23T18:53:41.169Z,11.10
2019-01-23T18:56:09.937Z,10.57
2019-01-23T18:58:38.844Z,12.57
2019-01-23T19:01:07.646Z,7.70
2019-01-23T19:03:36.922Z,9.67
2019-01-23T19:06:05.779Z,7.30
2019-01-23T19:08:35.166Z,7.17
2019-01-23T19:11:04.643Z,8.37
2019-01-23T19:13:33.424Z,9.37
2019-01-23T19:16:02.525Z,12.13
2019-01-23T19:18:31.467Z,12.13
2019-01-23T19:21:00.546Z,11.53
2019-01-23T19:23:29.887Z,11.50
2019-01-23T19:25:59.160Z,11.40
2019-01-23T19:28:28.502Z,11.67
2019-01-23T19:30:57.641Z,7.87
2019-01-23T19:33:26.422Z,8.40
2019-01-23T19:35:55.207Z,11.13
2019-01-23T19:38:23.979Z,10.43
2019-01-23T19:40:53.012Z,11.37
2019-01-23T19:43:21.827Z,12.23
2019-01-23T19:45:50.911Z,13.50
2019-01-23T19:48:19.710Z,11.90
2019-01-23T19:50:48.547Z,9.17
2019-01-23T19:53:17.508Z,9.97
2019-01-23T19:55:46.399Z,9.13
2019-01-23T19:58:16.249Z,11.27
2019-01-23T20:00:45.091Z,11.40
2019-01-23T20:03:20.269Z,9.27
2019-01-23T20:05:45.759Z,10.67
2019-01-23T20:08:14.463Z,12.23
2019-01-23T20:10:43.125Z,12.00
2019-01-23T20:13:11.906Z,11.77
2019-01-23T20:15:40.631Z,11.53
2019-01-23T20:18:10.547Z,11.13
2019-01-23T20:20:39.784Z,12.47
2019-01-23T20:23:08.514Z,11.33
2019-01-23T20:25:37.222Z,11.77
2019-01-23T20:28:09.073Z,11.53
2019-01-23T20:30:40.430Z,7.00
2019-01-23T20:33:09.501Z,12.10
2019-01-23T20:35:38.205Z,11.30
2019-01-23T20:38:07.509Z,10.40
2019-01-23T20:40:36.826Z,12.53
2019-01-23T20:43:06.577Z,12.67
2019-01-23T20:45:35.685Z,10.90
2019-01-23T20:48:06.114Z,11.43
2019-01-23T20:50:34.866Z,12.27
2019-01-23T20:53:03.916Z,12.77
2019-01-23T20:55:32.650Z,10.53
2019-01-23T20:58:01.470Z,11.20
2019-01-23T21:00:31.798Z,8.90
2019-01-23T21:03:00.717Z,13.23
2019-01-23T21:05:29.606Z,14.17
2019-01-23T21:07:58.406Z,12.73
2019-01-23T21:10:27.528Z,14.30
2019-01-23T21:12:57.421Z,10.50
2019-01-23T21:15:30.809Z,11.93
2019-01-23T21:18:00.266Z,11.30
2019-01-23T21:20:31.702Z,12.20
2019-01-23T21:23:01.059Z,12.40
2019-01-23T21:25:29.901Z,13.37
2019-01-23T21:27:58.753Z,12.83
2019-01-23T21:30:27.630Z,15.20
2019-01-23T21:32:56.817Z,12.80
2019-01-23T21:35:25.602Z,10.87
2019-01-23T21:37:54.291Z,10.30
2019-01-23T21:40:25.462Z,11.57
2019-01-23T21:42:54.307Z,11.37
2019-01-23T21:45:23.337Z,11.97
2019-01-23T21:47:52.847Z,12.60
2019-01-23T21:50:22.544Z,10.40
2019-01-23T21:52:51.758Z,13.03
2019-01-23T21:57:14.525Z,10.93
2019-01-23T21:59:43.611Z,10.63
2019-01-23T22:02:12.384Z,13.13
2019-01-23T22:04:41.084Z,12.93
2019-01-23T22:07:09.787Z,9.10
2019-01-23T22:09:38.520Z,13.20
2019-01-23T22:12:07.269Z,11.73
2019-01-23T22:14:36.224Z,10.43
2019-01-23T22:17:05.118Z,11.90
2019-01-23T22:19:33.846Z,9.77
2019-01-23T22:22:02.553Z,11.30
2019-01-23T22:24:31.255Z,11.33
2019-01-23T22:27:00.167Z,13.97
2019-01-23T22:29:28.889Z,10.60
2019-01-23T22:31:57.566Z,13.70
2019-01-23T22:34:26.607Z,13.13
2019-01-23T22:36:57.069Z,11.47
2019-01-23T22:39:26.356Z,12.73
2019-01-23T22:41:55.119Z,11.80
2019-01-23T22:44:24.269Z,8.43
2019-01-23T22:46:52.987Z,12.67
2019-01-23T22:49:21.685Z,11.37
2019-01-23T22:51:50.390Z,13.13
2019-01-23T22:54:19.423Z,14.20
2019-01-23T22:56:48.100Z,13.97
2019-01-23T22:59:17.015Z,12.47
2019-01-23T23:01:45.876Z,13.00
2019-01-23T23:04:14.788Z,12.70
2019-01-23T23:06:43.779Z,12.33
2019-01-23T23:09:12.539Z,11.87
2019-01-23T23:11:41.290Z,12.90
2019-01-23T23:14:10.098Z,11.43
2019-01-23T23:16:38.832Z,11.33
2019-01-23T23:19:07.940Z,11.13
2019-01-23T23:21:36.921Z,11.07
2019-01-23T23:24:05.724Z,12.70
2019-01-23T23:26:34.750Z,12.10
2019-01-23T23:29:03.891Z,10.37
2019-01-23T23:31:32.576Z,12.23
2019-01-23T23:34:02.720Z,12.43
2019-01-23T23:36:31.831Z,12.80
2019-01-23T23:39:00.588Z,13.13
2019-01-23T23:41:29.351Z,11.70
2019-01-23T23:43:59.412Z,12.33
2019-01-23T23:46:28.216Z,12.87
2019-01-23T23:48:57.240Z,11.20
2019-01-23T23:51:26.042Z,12.57
2019-01-23T23:53:54.774Z,11.60
2019-01-23T23:56:23.463Z,13.87
2019-01-23T23:58:52.232Z,13.53
